createdAt,value
2022-11-21T00:01:27.848Z,5.07
2022-11-21T00:04:00.821Z,7.87
2022-11-21T00:06:33.137Z,6.05
2022-11-21T00:09:05.416Z,7.70
2022-11-21T00:11:38.160Z,7.07
2022-11-21T00:14:10.333Z,6.07
2022-11-21T00:16:43.401Z,7.83
2022-11-21T00:19:15.710Z,5.47
2022-11-21T00:21:48.233Z,6.47
2022-11-21T00:24:21.945Z,10.48
2022-11-21T00:26:54.224Z,8.82
2022-11-21T00:29:26.997Z,9.23
2022-11-21T00:31:59.295Z,7.22
2022-11-21T00:34:32.047Z,8.77
2022-11-21T00:37:04.728Z,7.47
2022-11-21T00:39:36.998Z,9.57
2022-11-21T00:42:10.247Z,6.40
2022-11-21T00:44:42.101Z,7.63
2022-11-21T00:47:14.858Z,11.55
2022-11-21T00:49:47.613Z,6.35
2022-11-21T00:52:19.497Z,13.60
2022-11-21T00:54:52.601Z,6.30
2022-11-21T00:57:24.866Z,6.93
2022-11-21T00:59:57.951Z,7.50
2022-11-21T01:02:31.609Z,8.70
2022-11-21T01:05:04.556Z,7.53
2022-11-21T01:07:36.525Z,9.13
2022-11-21T01:10:09.337Z,7.10
2022-11-21T01:12:41.655Z,6.85
2022-11-21T01:15:13.763Z,10.32
2022-11-21T01:17:49.922Z,8.02
2022-11-21T01:20:22.235Z,9.20
2022-11-21T01:22:55.376Z,9.90
2022-11-21T01:25:27.685Z,12.95
2022-11-21T01:30:53.577Z,10.10
2022-11-21T01:33:25.458Z,8.00
2022-11-21T01:35:58.615Z,10.25
2022-11-21T01:38:31.304Z,11.80
2022-11-21T01:41:03.638Z,11.40
2022-11-21T01:43:37.113Z,9.57
2022-11-21T01:46:09.409Z,8.57
2022-11-21T01:49:03.967Z,6.25
2022-11-21T01:52:09.351Z,11.80
2022-11-21T01:55:00.807Z,8.95
2022-11-21T01:57:41.683Z,13.55
2022-11-21T02:00:38.456Z,10.00
2022-11-21T02:03:16.001Z,8.43
2022-11-21T02:05:49.404Z,6.75
2022-11-21T02:08:23.683Z,9.23
2022-11-21T02:11:27.703Z,8.55
2022-11-21T02:14:00.798Z,10.83
2022-11-21T02:16:35.223Z,9.32
2022-11-21T02:19:15.775Z,6.82
2022-11-21T02:22:21.385Z,9.35
2022-11-21T02:25:13.085Z,8.13
2022-11-21T02:27:47.279Z,10.23
2022-11-21T02:30:20.106Z,8.20
2022-11-21T02:32:52.528Z,10.35
2022-11-21T02:35:25.944Z,7.50
2022-11-21T02:38:16.388Z,9.77
2022-11-21T02:41:13.728Z,8.17
2022-11-21T02:43:57.826Z,14.68
2022-11-21T02:46:29.773Z,8.35
2022-11-21T02:49:07.968Z,10.18
2022-11-21T02:51:39.844Z,8.95
2022-11-21T02:54:12.976Z,8.27
2022-11-21T02:56:45.258Z,10.27
2022-11-21T02:59:18.392Z,13.27
2022-11-21T03:01:51.414Z,7.63
2022-11-21T03:04:23.307Z,8.88
2022-11-21T03:06:56.084Z,10.60
2022-11-21T03:09:28.382Z,9.07
2022-11-21T03:12:05.875Z,7.40
2022-11-21T03:14:38.037Z,10.55
2022-11-21T03:17:10.838Z,8.45
2022-11-21T03:19:42.773Z,8.40
2022-11-21T03:22:16.237Z,7.15
2022-11-21T03:24:48.599Z,8.48
2022-11-21T03:27:20.496Z,6.50
2022-11-21T03:29:53.683Z,6.63
2022-11-21T03:32:25.666Z,7.87
2022-11-21T03:34:58.775Z,16.95
2022-11-21T03:37:30.660Z,5.97
2022-11-21T03:40:03.578Z,7.85
2022-11-21T03:42:36.345Z,7.10
2022-11-21T03:45:09.737Z,8.40
2022-11-21T03:47:42.468Z,6.18
2022-11-21T03:50:18.484Z,7.82
2022-11-21T03:52:51.626Z,6.45
2022-11-21T03:55:23.965Z,6.47
2022-11-21T03:57:55.861Z,7.83
2022-11-21T04:00:29.048Z,6.40
2022-11-21T04:03:01.583Z,6.18
2022-11-21T04:05:34.367Z,7.20
2022-11-21T04:08:06.386Z,8.40
2022-11-21T04:10:38.784Z,6.60
2022-11-21T04:13:11.069Z,10.07
2022-11-21T04:15:44.447Z,6.30
2022-11-21T04:18:16.857Z,7.85
2022-11-21T04:20:58.837Z,5.30
2022-11-21T04:23:31.717Z,6.40
2022-11-21T04:26:05.015Z,10.82
2022-11-21T04:28:37.361Z,7.10
2022-11-21T04:31:11.098Z,11.20
2022-11-21T04:33:44.239Z,8.48
2022-11-21T04:36:17.482Z,8.63
2022-11-21T04:38:49.403Z,10.95
2022-11-21T04:41:21.853Z,9.38
2022-11-21T04:43:53.774Z,9.40
2022-11-21T04:46:26.557Z,8.02
2022-11-21T04:48:58.889Z,6.20
2022-11-21T04:51:31.199Z,8.93
2022-11-21T04:54:04.022Z,13.52
2022-11-21T04:56:37.195Z,12.23
2022-11-21T04:59:12.359Z,9.75
2022-11-21T05:01:44.714Z,5.63
2022-11-21T05:04:16.660Z,7.10
2022-11-21T05:06:49.375Z,11.77
2022-11-21T05:09:21.768Z,7.75
2022-11-21T05:12:12.268Z,9.35
2022-11-21T05:14:45.256Z,9.90
2022-11-21T05:17:17.151Z,7.80
2022-11-21T05:19:50.347Z,10.23
2022-11-21T05:22:22.283Z,6.20
2022-11-21T05:24:55.390Z,7.88
2022-11-21T05:27:27.738Z,8.73
2022-11-21T05:30:00.929Z,6.80
2022-11-21T05:32:33.716Z,5.68
2022-11-21T05:35:07.934Z,4.75
2022-11-21T05:37:40.551Z,6.15
2022-11-21T05:40:12.970Z,7.80
2022-11-21T05:43:04.140Z,8.63
2022-11-21T05:45:36.995Z,8.32
2022-11-21T05:48:08.948Z,7.50
2022-11-21T05:50:41.809Z,7.88
2022-11-21T05:53:13.886Z,6.73
2022-11-21T05:55:46.901Z,8.18
2022-11-21T05:58:19.238Z,4.80
2022-11-21T06:00:59.919Z,9.68
2022-11-21T06:03:40.032Z,12.40
2022-11-21T06:06:14.537Z,7.27
2022-11-21T06:08:48.039Z,9.00
2022-11-21T06:11:19.913Z,7.97
2022-11-21T06:13:56.171Z,7.85
2022-11-21T06:16:28.670Z,9.32
2022-11-21T06:19:01.015Z,5.67
2022-11-21T06:21:35.073Z,7.20
2022-11-21T06:24:08.780Z,7.20
2022-11-21T06:26:40.687Z,5.88
2022-11-21T06:29:13.454Z,9.77
2022-11-21T06:31:45.761Z,5.40
2022-11-21T06:34:18.500Z,7.10
2022-11-21T06:36:51.314Z,6.50
2022-11-21T06:39:24.464Z,10.75
2022-11-21T06:41:57.150Z,8.35
2022-11-21T06:44:29.371Z,6.77
2022-11-21T06:47:02.407Z,5.90
2022-11-21T06:49:35.130Z,6.38
2022-11-21T06:52:06.969Z,7.13
2022-11-21T06:54:39.699Z,7.90
2022-11-21T06:57:12.082Z,6.03
2022-11-21T06:59:44.473Z,7.55
2022-11-21T07:02:16.569Z,7.18
2022-11-21T07:04:49.355Z,6.53
2022-11-21T07:07:22.132Z,9.63
2022-11-21T07:09:54.491Z,8.73
2022-11-21T07:12:46.650Z,8.02
2022-11-21T07:15:18.511Z,9.18
2022-11-21T07:17:51.642Z,6.07
2022-11-21T07:20:23.553Z,5.90
2022-11-21T07:22:57.206Z,7.97
2022-11-21T07:25:35.235Z,14.32
2022-11-21T07:28:09.747Z,12.18
2022-11-21T07:30:42.485Z,5.85
2022-11-21T07:33:14.786Z,8.10
2022-11-21T07:35:47.965Z,7.00
2022-11-21T07:38:19.904Z,8.60
2022-11-21T07:40:53.203Z,11.65
2022-11-21T07:43:26.172Z,13.50
2022-11-21T07:45:59.379Z,8.93
2022-11-21T07:48:32.286Z,11.97
2022-11-21T07:51:07.341Z,9.13
2022-11-21T07:53:39.904Z,10.18
2022-11-21T07:56:11.822Z,13.32
2022-11-21T07:58:44.576Z,9.25
2022-11-21T08:01:17.740Z,13.07
2022-11-21T08:03:50.158Z,18.73
2022-11-21T08:06:22.499Z,12.55
2022-11-21T08:08:55.937Z,18.25
2022-11-21T08:11:28.236Z,13.07
2022-11-21T08:14:01.424Z,9.23
2022-11-21T08:16:33.715Z,12.77
2022-11-21T08:19:06.601Z,9.18
2022-11-21T08:21:39.354Z,13.40
2022-11-21T08:24:15.039Z,12.98
2022-11-21T08:26:47.830Z,16.30
2022-11-21T08:29:20.602Z,11.80
2022-11-21T08:31:52.700Z,16.35
2022-11-21T08:34:25.479Z,12.60
2022-11-21T08:36:59.282Z,11.05
2022-11-21T08:39:32.147Z,10.40
2022-11-21T08:42:04.743Z,9.18
2022-11-21T08:44:37.067Z,12.05
2022-11-21T08:47:09.861Z,10.40
2022-11-21T08:49:41.731Z,10.43
2022-11-21T08:52:17.664Z,9.38
2022-11-21T08:54:49.541Z,16.17
2022-11-21T08:57:22.237Z,10.77
2022-11-21T08:59:54.514Z,10.70
2022-11-21T09:02:27.233Z,11.38
2022-11-21T09:05:00.258Z,12.82
2022-11-21T09:07:32.244Z,13.45
2022-11-21T09:10:05.418Z,12.93
2022-11-21T09:12:37.777Z,14.40
2022-11-21T09:15:31.070Z,9.38
2022-11-21T09:18:04.914Z,8.55
2022-11-21T09:20:43.723Z,12.98
2022-11-21T09:23:16.993Z,16.45
2022-11-21T09:25:50.226Z,7.15
2022-11-21T09:28:22.610Z,13.20
2022-11-21T09:30:54.903Z,11.80
2022-11-21T09:33:27.736Z,16.08
2022-11-21T09:36:01.174Z,12.98
2022-11-21T09:38:33.147Z,15.85
2022-11-21T09:41:52.605Z,13.20
2022-11-21T09:45:05.991Z,8.73
2022-11-21T09:47:46.493Z,15.95
2022-11-21T09:50:29.907Z,12.43
2022-11-21T09:53:26.680Z,10.00
2022-11-21T09:56:05.594Z,11.13
2022-11-21T09:58:47.675Z,8.80
2022-11-21T10:01:20.472Z,11.80
2022-11-21T10:03:53.293Z,16.27
2022-11-21T10:06:32.630Z,13.05
2022-11-21T10:09:16.861Z,10.30
2022-11-21T10:12:37.429Z,13.38
2022-11-21T10:15:40.565Z,13.15
2022-11-21T10:19:00.665Z,11.75
2022-11-21T10:21:39.198Z,11.07
2022-11-21T10:24:41.034Z,11.30
2022-11-21T10:27:23.538Z,13.85
2022-11-21T10:30:05.527Z,13.50
2022-11-21T10:32:46.898Z,10.85
2022-11-21T10:35:25.278Z,12.82
2022-11-21T10:38:03.392Z,13.43
2022-11-21T10:40:51.779Z,11.68
2022-11-21T10:43:41.973Z,10.65
2022-11-21T10:46:15.048Z,10.52
2022-11-21T10:49:02.817Z,12.85
2022-11-21T10:52:05.246Z,9.63
2022-11-21T10:55:02.640Z,8.77
2022-11-21T10:57:55.698Z,12.30
2022-11-21T11:00:28.916Z,7.75
2022-11-21T11:03:05.654Z,11.68
2022-11-21T11:05:39.711Z,8.77
2022-11-21T11:08:15.068Z,8.45
2022-11-21T11:11:15.415Z,14.43
2022-11-21T11:14:05.272Z,9.23
2022-11-21T11:16:46.450Z,7.20
2022-11-21T11:19:35.309Z,12.05
2022-11-21T11:22:29.614Z,11.30
2022-11-21T11:25:04.989Z,11.27
2022-11-21T11:27:38.148Z,9.02
2022-11-21T11:30:17.233Z,10.07
2022-11-21T11:32:49.499Z,10.00
2022-11-21T11:35:23.741Z,12.35
2022-11-21T11:38:03.839Z,9.77
2022-11-21T11:40:38.965Z,9.18
2022-11-21T11:44:04.552Z,7.07
2022-11-21T11:47:11.342Z,10.80
2022-11-21T11:50:07.695Z,7.13
2022-11-21T11:53:07.302Z,9.38
2022-11-21T11:55:54.734Z,14.45
2022-11-21T11:59:10.062Z,12.63
2022-11-21T12:02:22.164Z,8.85
2022-11-21T12:05:03.353Z,9.88
2022-11-21T12:08:38.673Z,8.30
2022-11-21T12:11:14.315Z,9.50
2022-11-21T12:13:50.145Z,7.32
2022-11-21T12:16:25.136Z,7.95
2022-11-21T12:19:13.677Z,11.75
2022-11-21T12:21:46.126Z,6.97
2022-11-21T12:24:21.418Z,8.00
2022-11-21T12:27:16.345Z,6.60
2022-11-21T12:30:25.906Z,7.07
2022-11-21T12:33:12.873Z,10.50
2022-11-21T12:36:17.735Z,7.03
2022-11-21T12:39:31.633Z,7.20
2022-11-21T12:42:44.313Z,7.93
2022-11-21T12:45:39.556Z,5.63
2022-11-21T12:48:52.386Z,10.35
2022-11-21T12:52:27.229Z,6.15
2022-11-21T12:55:13.852Z,7.35
2022-11-21T12:58:11.174Z,8.05
2022-11-21T13:01:06.944Z,6.68
2022-11-21T13:04:12.448Z,6.13
2022-11-21T13:06:48.554Z,6.93
2022-11-21T13:09:23.230Z,7.82
2022-11-21T13:12:16.680Z,8.00
2022-11-21T13:15:38.998Z,5.82
2022-11-21T13:18:22.856Z,8.98
2022-11-21T13:20:55.597Z,5.40
2022-11-21T13:23:42.319Z,7.32
2022-11-21T13:26:26.468Z,6.00
2022-11-21T13:29:15.108Z,9.18
2022-11-21T13:31:48.112Z,8.65
2022-11-21T13:34:36.908Z,7.07
2022-11-21T13:37:09.251Z,7.70
2022-11-21T13:39:41.957Z,17.45
2022-11-21T13:42:33.144Z,9.35
2022-11-21T13:45:56.936Z,7.80
2022-11-21T13:48:29.143Z,8.20
2022-11-21T13:51:07.588Z,8.38
2022-11-21T13:54:05.610Z,8.02
2022-11-21T13:56:53.253Z,5.97
2022-11-21T13:59:55.680Z,10.57
2022-11-21T14:02:54.328Z,6.32
2022-11-21T14:05:52.781Z,9.77
2022-11-21T14:08:27.823Z,7.38
2022-11-21T14:11:32.607Z,6.40
2022-11-21T14:14:05.375Z,8.98
2022-11-21T14:16:44.688Z,7.95
2022-11-21T14:19:21.000Z,7.38
2022-11-21T14:21:55.290Z,8.90
2022-11-21T14:24:28.774Z,8.15
2022-11-21T14:27:02.408Z,8.15
2022-11-21T14:29:41.891Z,7.05
2022-11-21T14:32:16.329Z,7.15
2022-11-21T14:34:48.204Z,8.68
2022-11-21T14:37:21.969Z,7.97
2022-11-21T14:39:57.121Z,10.10
2022-11-21T14:42:37.673Z,8.80
2022-11-21T14:45:24.159Z,6.93
2022-11-21T14:47:56.023Z,6.40
2022-11-21T14:50:31.939Z,6.07
2022-11-21T14:53:04.598Z,7.35
2022-11-21T14:55:36.980Z,7.63
2022-11-21T14:58:10.235Z,7.60
2022-11-21T15:00:59.202Z,9.57
2022-11-21T15:03:32.978Z,10.75
2022-11-21T15:06:11.171Z,9.50
2022-11-21T15:11:42.985Z,11.15
2022-11-21T15:14:38.450Z,8.95
2022-11-21T15:17:16.535Z,7.70
2022-11-21T15:20:23.542Z,10.25
2022-11-21T15:23:01.708Z,9.63
2022-11-21T15:25:47.699Z,9.18
2022-11-21T15:28:19.571Z,5.57
2022-11-21T15:31:20.468Z,12.82
2022-11-21T15:37:12.928Z,10.95
2022-11-21T15:42:40.002Z,11.43
2022-11-21T15:45:19.786Z,13.60
2022-11-21T15:47:53.137Z,12.63
2022-11-21T15:50:26.634Z,10.73
2022-11-21T15:52:59.509Z,11.98
2022-11-21T15:55:31.596Z,11.02
2022-11-21T15:57:13.716Z,8.00
2022-11-21T15:58:04.417Z,9.10
2022-11-21T16:00:36.327Z,7.03
2022-11-21T16:03:12.522Z,8.70
2022-11-21T16:05:45.249Z,16.15
2022-11-21T16:08:18.730Z,12.10
2022-11-21T16:10:50.673Z,9.10
2022-11-21T16:13:23.432Z,6.10
2022-11-21T16:15:56.360Z,10.77
2022-11-21T16:18:29.752Z,6.80
2022-11-21T16:21:10.522Z,7.88
2022-11-21T16:23:43.483Z,9.45
2022-11-21T16:26:16.666Z,10.53
2022-11-21T16:28:48.644Z,8.48
2022-11-21T16:31:24.160Z,11.10
2022-11-21T16:33:57.274Z,8.43
2022-11-21T16:36:31.120Z,8.13
2022-11-21T16:39:09.930Z,8.50
2022-11-21T16:41:44.297Z,7.07
2022-11-21T16:44:17.522Z,8.77
2022-11-21T16:46:52.069Z,10.73
2022-11-21T16:49:25.053Z,6.07
2022-11-21T16:51:59.329Z,8.07
2022-11-21T16:54:32.027Z,11.50
2022-11-21T16:57:05.047Z,8.88
2022-11-21T16:59:37.741Z,10.88
2022-11-21T17:02:11.345Z,8.48
2022-11-21T17:04:44.047Z,13.13
2022-11-21T17:07:16.007Z,9.82
2022-11-21T17:09:48.767Z,13.60
2022-11-21T17:12:20.675Z,18.15
2022-11-21T17:14:54.946Z,13.65
2022-11-21T17:17:26.898Z,12.75
2022-11-21T17:20:00.042Z,13.02
2022-11-21T17:22:33.741Z,14.25
2022-11-21T17:25:07.111Z,14.15
2022-11-21T17:27:39.423Z,13.18
2022-11-21T17:30:13.395Z,13.17
2022-11-21T17:32:45.254Z,10.40
2022-11-21T17:35:18.172Z,11.85
2022-11-21T17:37:50.434Z,10.40
2022-11-21T17:40:22.770Z,11.77
2022-11-21T17:42:55.113Z,11.43
2022-11-21T17:45:27.006Z,16.02
2022-11-21T17:47:59.345Z,16.98
2022-11-21T17:50:32.301Z,11.32
2022-11-21T17:53:05.443Z,15.07
2022-11-21T17:55:37.796Z,14.57
2022-11-21T17:58:14.636Z,12.27
2022-11-21T18:00:46.737Z,11.30
2022-11-21T18:03:19.714Z,12.73
2022-11-21T18:06:13.672Z,10.95
2022-11-21T18:08:48.279Z,7.17
2022-11-21T18:11:21.951Z,8.70
2022-11-21T18:13:54.628Z,9.43
2022-11-21T18:16:30.483Z,11.82
2022-11-21T18:19:03.120Z,9.60
2022-11-21T18:21:36.634Z,13.45
2022-11-21T18:24:08.780Z,14.23
2022-11-21T18:26:42.027Z,12.32
2022-11-21T18:32:07.709Z,18.77
2022-11-21T18:34:39.871Z,14.77
2022-11-21T18:37:12.903Z,20.92
2022-11-21T18:39:45.020Z,17.30
2022-11-21T18:42:18.808Z,18.38
2022-11-21T18:44:51.785Z,15.70
2022-11-21T18:47:24.531Z,15.57
2022-11-21T18:49:56.600Z,15.73
2022-11-21T18:52:50.576Z,12.32
2022-11-21T18:55:22.976Z,11.25
2022-11-21T18:57:56.735Z,12.15
2022-11-21T19:00:28.645Z,11.65
2022-11-21T19:03:01.808Z,10.82
2022-11-21T19:05:34.086Z,13.13
2022-11-21T19:08:06.090Z,15.52
2022-11-21T19:10:43.449Z,13.18
2022-11-21T19:13:16.577Z,14.43
2022-11-21T19:15:49.341Z,14.68
2022-11-21T19:18:22.085Z,8.05
2022-11-21T19:20:54.364Z,14.45
2022-11-21T19:23:26.237Z,14.82
2022-11-21T19:26:11.470Z,12.95
2022-11-21T19:28:45.729Z,13.00
2022-11-21T19:31:18.827Z,16.92
2022-11-21T19:33:51.990Z,14.43
2022-11-21T19:36:24.593Z,18.15
2022-11-21T19:38:57.332Z,15.33
2022-11-21T19:41:31.079Z,17.42
2022-11-21T19:44:03.862Z,13.48
2022-11-21T19:46:38.461Z,15.27
2022-11-21T19:49:12.608Z,9.90
2022-11-21T19:51:45.182Z,19.00
2022-11-21T19:54:18.338Z,21.45
2022-11-21T19:56:51.029Z,17.30
2022-11-21T19:59:22.964Z,14.68
2022-11-21T20:01:56.111Z,15.30
2022-11-21T20:04:28.629Z,13.20
2022-11-21T20:07:07.436Z,13.23
2022-11-21T20:09:40.473Z,14.38
2022-11-21T20:12:12.841Z,9.60
2022-11-21T20:14:45.155Z,12.00
2022-11-21T20:17:17.483Z,9.07
2022-11-21T20:19:50.837Z,10.40
2022-11-21T20:22:22.909Z,10.05
2022-11-21T20:24:54.843Z,10.05
2022-11-21T20:27:28.291Z,5.72
2022-11-21T20:30:01.065Z,5.03
2022-11-21T20:32:33.747Z,5.47
2022-11-21T20:35:07.570Z,4.85
2022-11-21T20:37:39.455Z,5.18
2022-11-21T20:40:12.788Z,4.45
2022-11-21T20:42:45.136Z,5.85
2022-11-21T20:48:14.651Z,4.80
2022-11-21T20:53:58.533Z,3.65
2022-11-21T20:56:36.165Z,4.03
2022-11-21T20:59:09.546Z,5.28
2022-11-21T21:01:42.361Z,3.70
2022-11-21T21:04:15.073Z,3.33
2022-11-21T21:06:47.370Z,3.28
2022-11-21T21:09:19.656Z,3.13
2022-11-21T21:11:53.269Z,3.25
2022-11-21T21:14:26.766Z,3.45
2022-11-21T21:16:59.053Z,3.78
2022-11-21T21:19:31.602Z,3.60
2022-11-21T21:22:04.971Z,3.38
2022-11-21T21:24:37.857Z,4.00
2022-11-21T21:27:10.232Z,3.20
2022-11-21T21:29:42.091Z,4.18
2022-11-21T21:32:15.051Z,3.20
2022-11-21T21:34:47.337Z,4.45
2022-11-21T21:37:20.097Z,3.90
2022-11-21T21:39:52.173Z,6.63
2022-11-21T21:42:25.413Z,3.75
2022-11-21T21:44:57.750Z,3.60
2022-11-21T21:47:30.001Z,6.90
2022-11-21T21:50:03.088Z,3.30
2022-11-21T21:52:35.748Z,3.97
2022-11-21T21:55:08.067Z,4.95
2022-11-21T21:57:46.032Z,3.45
2022-11-21T22:00:21.428Z,3.80
2022-11-21T22:02:53.294Z,3.63
2022-11-21T22:05:26.079Z,4.32
2022-11-21T22:07:58.655Z,4.40
2022-11-21T22:10:31.740Z,5.68
2022-11-21T22:13:05.101Z,3.60
2022-11-21T22:15:37.759Z,3.67
2022-11-21T22:18:09.627Z,4.35
2022-11-21T22:20:42.347Z,4.30
2022-11-21T22:23:14.254Z,3.97
2022-11-21T22:25:47.429Z,4.60
2022-11-21T22:28:20.446Z,4.40
2022-11-21T22:30:59.429Z,4.88
2022-11-21T22:33:32.839Z,5.55
2022-11-21T22:36:08.364Z,4.32
2022-11-21T22:38:41.432Z,4.03
2022-11-21T22:41:18.477Z,4.57
2022-11-21T22:43:57.844Z,3.72
2022-11-21T22:46:30.836Z,4.20
2022-11-21T22:49:04.074Z,5.70
2022-11-21T22:51:35.936Z,5.13
2022-11-21T22:54:09.100Z,4.55
2022-11-21T22:56:40.992Z,6.68
2022-11-21T22:59:14.326Z,4.07
2022-11-21T23:01:47.051Z,4.90
2022-11-21T23:04:19.360Z,5.13
2022-11-21T23:06:52.095Z,6.22
2022-11-21T23:09:24.513Z,6.30
2022-11-21T23:11:56.394Z,7.75
2022-11-21T23:14:29.671Z,6.22
2022-11-21T23:17:01.798Z,5.35
2022-11-21T23:19:37.743Z,6.13
2022-11-21T23:22:09.627Z,5.03
2022-11-21T23:24:42.356Z,5.45
2022-11-21T23:27:14.681Z,5.15
2022-11-21T23:29:46.527Z,5.67
2022-11-21T23:32:19.203Z,4.15
2022-11-21T23:34:51.503Z,4.45
2022-11-21T23:37:23.775Z,5.35
2022-11-21T23:39:56.464Z,5.30
2022-11-21T23:42:28.328Z,5.87
2022-11-21T23:45:01.057Z,6.80
2022-11-21T23:47:33.403Z,4.93
2022-11-21T23:50:06.688Z,9.15
2022-11-21T23:52:39.004Z,3.70
2022-11-21T23:55:11.629Z,5.95
2022-11-21T23:57:48.854Z,5.38
